Terminal Aerodrome Forecast
Issued by NWS

Home | Current Version | Previous Version | Text Only | Print | Product List | Glossary Off
Versions: 1 2 3 4 5 6 7 8 9 10 11 12 13 14 15 16 17 18 19

000
FTUS43 KLSX 231700
TAFSUS
TAF
KSUS 231734Z 2318/2418 02007KT P6SM BKN015
     FM231900 02009KT P6SM BKN030
     FM240300 VRB04KT P6SM SKC
     FM241700 04007KT P6SM SKC=

USA.gov is the U.S. government's official web portal to all federal, state and local government web resources and services.